createdAt,value
2018-02-03T00:00:52.431Z,15.10
2018-02-03T00:03:19.991Z,14.15
2018-02-03T00:05:47.551Z,14.00
2018-02-03T00:08:15.111Z,13.37
2018-02-03T00:10:42.829Z,14.23
2018-02-03T00:13:10.332Z,14.10
2018-02-03T00:15:37.788Z,14.00
2018-02-03T00:18:06.208Z,15.27
2018-02-03T00:20:33.664Z,14.80
2018-02-03T00:23:01.120Z,14.60
2018-02-03T00:25:28.743Z,14.87
2018-02-03T00:27:56.304Z,15.00
2018-02-03T00:30:24.270Z,15.90
2018-02-03T00:32:52.036Z,15.80
2018-02-03T00:35:19.527Z,16.80
2018-02-03T00:37:46.991Z,15.80
2018-02-03T00:40:14.612Z,14.20
2018-02-03T00:42:42.173Z,13.30
2018-02-03T00:45:09.730Z,15.00
2018-02-03T00:47:37.290Z,14.43
2018-02-03T00:50:04.850Z,15.00
2018-02-03T00:52:32.409Z,14.47
2018-02-03T00:54:59.836Z,15.10
2018-02-03T00:57:27.264Z,13.60
2018-02-03T00:59:54.779Z,15.03
2018-02-03T01:02:22.339Z,13.83
2018-02-03T01:04:49.796Z,16.00
2018-02-03T01:07:17.355Z,16.13
2018-02-03T01:09:44.915Z,16.57
2018-02-03T01:12:12.348Z,15.73
2018-02-03T01:14:40.853Z,15.57
2018-02-03T01:17:08.347Z,18.57
2018-02-03T01:19:35.870Z,18.20
2018-02-03T01:22:03.429Z,18.60
2018-02-03T01:24:30.849Z,18.80
2018-02-03T01:26:58.548Z,18.63
2018-02-03T01:29:26.108Z,18.60
2018-02-03T01:31:53.667Z,18.15
2018-02-03T01:34:21.125Z,17.80
2018-02-03T01:36:48.684Z,17.83
2018-02-03T01:39:16.189Z,18.23
2018-02-03T01:41:43.699Z,17.93
2018-02-03T01:44:11.196Z,17.53
2018-02-03T01:46:38.716Z,17.93
2018-02-03T01:49:06.268Z,19.03
2018-02-03T01:51:33.835Z,17.37
2018-02-03T01:54:01.328Z,19.73
2018-02-03T01:56:28.888Z,18.00
2018-02-03T01:58:56.447Z,17.43
2018-02-03T02:01:23.868Z,18.00
2018-02-03T02:03:51.428Z,17.80
2018-02-03T02:06:18.873Z,16.80
2018-02-03T02:08:46.502Z,17.07
2018-02-03T02:11:13.901Z,16.60
2018-02-03T02:13:41.871Z,16.20
2018-02-03T02:16:09.429Z,16.67
2018-02-03T02:18:36.988Z,16.33
2018-02-03T02:21:04.548Z,16.90
2018-02-03T02:23:32.108Z,16.87
2018-02-03T02:25:59.667Z,17.83
2018-02-03T02:28:27.227Z,18.30
2018-02-03T02:30:54.667Z,18.23
2018-02-03T02:33:22.140Z,18.27
2018-02-03T02:35:49.708Z,18.53
2018-02-03T02:38:17.260Z,18.00
2018-02-03T02:40:44.766Z,19.80
2018-02-03T02:43:12.276Z,17.80
2018-02-03T02:45:39.732Z,18.20
2018-02-03T02:48:07.229Z,17.73
2018-02-03T02:50:34.749Z,17.50
2018-02-03T02:53:02.311Z,17.90
2018-02-03T02:55:29.869Z,17.80
2018-02-03T02:57:57.427Z,18.80
2018-02-03T03:00:24.885Z,16.90
2018-02-03T03:02:52.446Z,17.07
2018-02-03T03:05:20.004Z,17.83
2018-02-03T03:07:47.461Z,16.87
2018-02-03T03:10:14.963Z,17.83
2018-02-03T03:12:42.404Z,17.20
2018-02-03T03:15:09.822Z,16.80
2018-02-03T03:17:37.391Z,15.83
2018-02-03T03:20:05.155Z,16.90
2018-02-03T03:22:32.648Z,17.10
2018-02-03T03:25:00.172Z,17.60
2018-02-03T03:27:27.731Z,18.50
2018-02-03T03:29:55.291Z,16.63
2018-02-03T03:32:23.057Z,16.77
2018-02-03T03:34:50.547Z,18.40
2018-02-03T03:37:18.004Z,16.20
2018-02-03T03:39:45.443Z,17.47
2018-02-03T03:42:12.920Z,16.50
2018-02-03T03:44:40.442Z,15.37
2018-02-03T03:47:07.879Z,16.73
2018-02-03T03:49:35.459Z,18.60
2018-02-03T03:52:03.530Z,17.33
2018-02-03T03:54:31.024Z,17.30
2018-02-03T03:56:58.546Z,15.90
2018-02-03T03:59:26.107Z,16.37
2018-02-03T04:01:53.666Z,17.70
2018-02-03T04:04:21.081Z,17.60
2018-02-03T04:06:48.681Z,16.90
2018-02-03T04:09:16.242Z,17.10
2018-02-03T04:11:44.006Z,16.50
2018-02-03T04:14:11.565Z,17.73
2018-02-03T04:16:39.060Z,17.00
2018-02-03T04:19:06.582Z,17.57
2018-02-03T04:21:34.141Z,16.33
2018-02-03T04:24:01.905Z,16.40
2018-02-03T04:26:29.464Z,16.67
2018-02-03T04:28:56.872Z,16.70
2018-02-03T04:31:24.379Z,18.10
2018-02-03T04:33:51.938Z,16.83
2018-02-03T04:36:19.497Z,16.60
2018-02-03T04:38:47.158Z,17.70
2018-02-03T04:41:14.719Z,17.13
2018-02-03T04:43:42.279Z,17.40
2018-02-03T04:46:09.773Z,16.70
2018-02-03T04:48:37.294Z,17.53
2018-02-03T04:51:04.854Z,15.80
2018-02-03T04:53:32.413Z,14.87
2018-02-03T04:55:59.848Z,16.70
2018-02-03T04:58:27.336Z,15.27
2018-02-03T05:00:54.834Z,16.67
2018-02-03T05:03:22.446Z,12.57
2018-02-03T05:05:49.940Z,9.53
2018-02-03T05:08:17.463Z,11.40
2018-02-03T05:10:45.022Z,11.97
2018-02-03T05:13:12.583Z,11.93
2018-02-03T05:15:40.078Z,12.50
2018-02-03T05:18:07.598Z,12.03
2018-02-03T05:20:35.012Z,12.77
2018-02-03T05:23:02.448Z,12.73
2018-02-03T05:25:29.969Z,12.37
2018-02-03T05:27:57.571Z,12.80
2018-02-03T05:30:25.089Z,12.73
2018-02-03T05:32:52.647Z,11.73
2018-02-03T05:35:20.616Z,11.73
2018-02-03T05:37:48.176Z,13.30
2018-02-03T05:40:15.635Z,10.60
2018-02-03T05:42:43.085Z,11.70
2018-02-03T05:45:13.106Z,11.80
2018-02-03T05:47:40.667Z,12.03
2018-02-03T05:50:08.226Z,11.37
2018-02-03T05:52:35.721Z,11.30
2018-02-03T05:55:03.177Z,11.77
2018-02-03T05:57:30.735Z,10.90
2018-02-03T05:59:58.259Z,11.07
2018-02-03T06:02:25.826Z,11.27
2018-02-03T06:04:53.481Z,12.03
2018-02-03T06:07:21.040Z,11.50
2018-02-03T06:09:48.599Z,11.77
2018-02-03T06:12:16.091Z,11.70
2018-02-03T06:14:43.646Z,12.57
2018-02-03T06:17:11.112Z,11.50
2018-02-03T06:19:38.567Z,11.53
2018-02-03T06:22:06.090Z,12.37
2018-02-03T06:24:33.649Z,11.40
2018-02-03T06:27:01.207Z,12.10
2018-02-03T06:29:28.771Z,11.57
2018-02-03T06:31:56.328Z,12.10
2018-02-03T06:34:23.821Z,12.80
2018-02-03T06:36:51.343Z,10.43
2018-02-03T06:39:18.904Z,12.93
2018-02-03T06:41:46.565Z,10.67
2018-02-03T06:44:14.060Z,11.13
2018-02-03T06:46:41.581Z,11.07
2018-02-03T06:49:09.140Z,10.50
2018-02-03T06:51:36.637Z,10.60
2018-02-03T06:54:04.040Z,9.30
2018-02-03T06:56:31.616Z,10.70
2018-02-03T06:58:59.175Z,9.87
2018-02-03T07:01:26.733Z,8.97
2018-02-03T07:03:54.291Z,9.30
2018-02-03T07:06:21.851Z,7.57
2018-02-03T07:08:49.411Z,8.47
2018-02-03T07:11:20.861Z,8.80
2018-02-03T07:13:48.423Z,8.10
2018-02-03T07:16:15.916Z,8.83
2018-02-03T07:18:43.356Z,7.90
2018-02-03T07:21:10.897Z,8.80
2018-02-03T07:23:38.296Z,8.57
2018-02-03T07:26:05.911Z,8.93
2018-02-03T07:28:33.323Z,9.93
2018-02-03T07:31:00.842Z,9.77
2018-02-03T07:33:28.441Z,10.00
2018-02-03T07:35:55.876Z,9.23
2018-02-03T07:38:23.401Z,9.70
2018-02-03T07:40:51.064Z,10.63
2018-02-03T07:43:18.560Z,11.90
2018-02-03T07:45:46.086Z,10.80
2018-02-03T07:48:13.645Z,10.73
2018-02-03T07:50:41.131Z,11.10
2018-02-03T07:53:08.656Z,10.30
2018-02-03T07:55:36.215Z,11.97
2018-02-03T07:58:03.775Z,10.67
2018-02-03T08:00:31.336Z,10.77
2018-02-03T08:02:58.800Z,10.60
2018-02-03T08:05:26.351Z,9.60
2018-02-03T08:07:53.845Z,11.00
2018-02-03T08:10:21.367Z,10.13
2018-02-03T08:12:48.784Z,10.43
2018-02-03T08:15:16.385Z,10.27
2018-02-03T08:17:44.046Z,9.97
2018-02-03T08:20:11.542Z,10.40
2018-02-03T08:22:39.062Z,10.50
2018-02-03T08:25:06.622Z,11.40
2018-02-03T08:27:34.081Z,10.57
2018-02-03T08:30:01.639Z,11.53
2018-02-03T08:32:29.132Z,10.97
2018-02-03T08:34:56.654Z,10.60
2018-02-03T08:37:24.216Z,9.33
2018-02-03T08:39:51.774Z,10.93
2018-02-03T08:42:19.639Z,10.40
2018-02-03T08:44:47.405Z,9.73
2018-02-03T08:47:14.899Z,9.73
2018-02-03T08:49:42.523Z,9.50
2018-02-03T08:52:10.082Z,6.37
2018-02-03T08:54:37.576Z,5.20
2018-02-03T08:57:05.204Z,5.30
2018-02-03T08:59:32.688Z,5.20
2018-02-03T09:02:00.218Z,5.10
2018-02-03T09:04:27.708Z,4.77
2018-02-03T09:06:55.147Z,4.53
2018-02-03T09:09:22.695Z,5.80
2018-02-03T09:11:56.223Z,5.90
2018-02-03T09:14:23.632Z,6.40
2018-02-03T09:16:51.209Z,6.20
2018-02-03T09:19:18.700Z,6.43
2018-02-03T09:21:46.325Z,7.67
2018-02-03T09:24:13.886Z,6.43
2018-02-03T09:26:41.316Z,6.70
2018-02-03T09:29:08.732Z,5.83
2018-02-03T09:31:36.256Z,6.20
2018-02-03T09:34:03.703Z,6.20
2018-02-03T09:36:31.274Z,5.57
2018-02-03T09:38:58.764Z,5.53
2018-02-03T09:41:26.223Z,6.00
2018-02-03T09:43:53.689Z,8.20
2018-02-03T09:46:21.204Z,7.30
2018-02-03T09:48:48.762Z,7.17
2018-02-03T09:51:16.261Z,7.10
2018-02-03T09:53:43.728Z,7.13
2018-02-03T09:56:11.238Z,7.50
2018-02-03T09:58:38.741Z,8.07
2018-02-03T10:01:06.252Z,7.00
2018-02-03T10:03:33.812Z,7.27
2018-02-03T10:06:01.304Z,6.80
2018-02-03T10:08:28.828Z,6.43
2018-02-03T10:10:56.300Z,6.40
2018-02-03T10:13:23.696Z,5.97
2018-02-03T10:15:51.199Z,5.13
2018-02-03T10:18:18.758Z,5.90
2018-02-03T10:20:47.240Z,6.03
2018-02-03T10:23:14.736Z,7.13
2018-02-03T10:25:42.231Z,6.13
2018-02-03T10:28:10.023Z,6.07
2018-02-03T10:30:37.478Z,5.70
2018-02-03T10:33:04.980Z,6.50
2018-02-03T10:35:32.421Z,6.20
2018-02-03T10:37:59.900Z,6.33
2018-02-03T10:40:27.409Z,6.50
2018-02-03T10:42:54.969Z,6.33
2018-02-03T10:45:22.415Z,6.67
2018-02-03T10:47:49.987Z,7.60
2018-02-03T10:50:17.547Z,6.83
2018-02-03T10:52:45.103Z,7.50
2018-02-03T10:55:12.626Z,7.40
2018-02-03T10:57:40.225Z,7.63
2018-02-03T11:00:07.830Z,8.40
2018-02-03T11:02:35.341Z,7.80
2018-02-03T11:05:02.808Z,7.17
2018-02-03T11:07:30.363Z,7.77
2018-02-03T11:09:57.916Z,8.20
2018-02-03T11:12:25.476Z,7.30
2018-02-03T11:14:53.036Z,7.80
2018-02-03T11:17:20.595Z,7.50
2018-02-03T11:19:48.090Z,8.67
2018-02-03T11:22:15.920Z,8.53
2018-02-03T11:24:43.349Z,7.93
2018-02-03T11:27:10.833Z,7.73
2018-02-03T11:29:38.392Z,8.03
2018-02-03T11:32:05.952Z,8.17
2018-02-03T11:34:33.408Z,8.40
2018-02-03T11:37:00.968Z,8.17
2018-02-03T11:39:28.364Z,7.80
2018-02-03T11:41:55.884Z,8.30
2018-02-03T11:44:23.444Z,9.37
2018-02-03T11:46:50.899Z,8.30
2018-02-03T11:49:18.391Z,9.00
2018-02-03T11:51:46.019Z,9.97
2018-02-03T11:54:13.421Z,10.00
2018-02-03T11:56:40.864Z,9.53
2018-02-03T11:59:08.424Z,8.30
2018-02-03T12:01:35.948Z,7.50
2018-02-03T12:04:03.507Z,7.90
2018-02-03T12:06:31.068Z,8.07
2018-02-03T12:08:58.560Z,7.70
2018-02-03T12:11:26.087Z,9.13
2018-02-03T12:13:53.542Z,7.90
2018-02-03T12:16:21.100Z,9.00
2018-02-03T12:18:48.659Z,9.13
2018-02-03T12:21:16.219Z,8.70
2018-02-03T12:23:43.649Z,9.00
2018-02-03T12:26:11.132Z,9.73
2018-02-03T12:28:38.650Z,8.70
2018-02-03T12:31:06.252Z,10.20
2018-02-03T12:33:33.811Z,9.17
2018-02-03T12:36:01.303Z,8.43
2018-02-03T12:38:28.732Z,9.17
2018-02-03T12:40:56.219Z,8.60
2018-02-03T12:43:23.742Z,8.90
2018-02-03T12:45:51.236Z,9.60
2018-02-03T12:48:18.758Z,10.10
2018-02-03T12:50:46.318Z,9.67
2018-02-03T12:53:13.877Z,10.90
2018-02-03T12:55:41.437Z,9.70
2018-02-03T12:58:08.996Z,11.37
2018-02-03T13:00:37.621Z,11.57
2018-02-03T13:03:05.083Z,9.27
2018-02-03T13:05:32.596Z,11.13
2018-02-03T13:08:00.155Z,11.00
2018-02-03T13:10:27.717Z,10.43
2018-02-03T13:12:55.274Z,9.87
2018-02-03T13:15:22.834Z,9.47
2018-02-03T13:17:50.393Z,9.20
2018-02-03T13:20:17.953Z,8.40
2018-02-03T13:22:45.511Z,9.17
2018-02-03T13:25:13.070Z,9.20
2018-02-03T13:27:40.634Z,9.37
2018-02-03T13:30:08.079Z,8.93
2018-02-03T13:32:35.604Z,8.60
2018-02-03T13:35:03.041Z,8.50
2018-02-03T13:37:30.562Z,9.10
2018-02-03T13:39:58.121Z,9.20
2018-02-03T13:42:25.573Z,8.97
2018-02-03T13:44:53.072Z,8.27
2018-02-03T13:47:20.594Z,8.30
2018-02-03T13:49:48.153Z,8.87
2018-02-03T13:52:15.715Z,9.30
2018-02-03T13:54:43.272Z,9.30
2018-02-03T13:57:10.832Z,9.50
2018-02-03T13:59:38.391Z,8.10
2018-02-03T14:02:05.953Z,8.43
2018-02-03T14:04:33.407Z,9.13
2018-02-03T14:07:00.900Z,8.73
2018-02-03T14:09:28.528Z,9.33
2018-02-03T14:11:56.086Z,10.57
2018-02-03T14:14:23.645Z,9.77
2018-02-03T14:16:51.205Z,9.10
2018-02-03T14:19:18.599Z,9.87
2018-02-03T14:21:46.051Z,9.30
2018-02-03T14:24:19.244Z,9.60
2018-02-03T14:26:46.701Z,9.97
2018-02-03T14:29:14.155Z,8.97
2018-02-03T14:31:41.580Z,10.20
2018-02-03T14:34:09.072Z,10.33
2018-02-03T14:36:36.698Z,9.63
2018-02-03T14:39:04.259Z,10.73
2018-02-03T14:41:31.817Z,10.07
2018-02-03T14:43:59.326Z,11.17
2018-02-03T14:46:26.845Z,9.97
2018-02-03T14:48:54.393Z,8.63
2018-02-03T14:51:21.955Z,7.93
2018-02-03T14:53:49.518Z,8.80
2018-02-03T14:56:17.071Z,7.73
2018-02-03T14:58:44.631Z,7.93
2018-02-03T15:01:12.189Z,8.40
2018-02-03T15:03:39.750Z,8.70
2018-02-03T15:06:07.309Z,7.47
2018-02-03T15:08:34.869Z,7.30
2018-02-03T15:11:02.264Z,7.77
2018-02-03T15:13:29.782Z,8.30
2018-02-03T15:15:57.342Z,9.77
2018-02-03T15:18:24.799Z,8.13
2018-02-03T15:20:52.244Z,8.60
2018-02-03T15:23:19.713Z,8.60
2018-02-03T15:25:47.272Z,8.43
2018-02-03T15:28:14.832Z,9.20
2018-02-03T15:30:42.391Z,9.07
2018-02-03T15:33:09.884Z,9.30
2018-02-03T15:35:37.408Z,8.90
2018-02-03T15:38:04.951Z,9.00
2018-02-03T15:40:32.526Z,8.83
2018-02-03T15:43:00.090Z,9.53
2018-02-03T15:45:27.588Z,9.60
2018-02-03T15:47:55.103Z,9.53
2018-02-03T15:50:22.662Z,9.87
2018-02-03T15:52:50.221Z,9.27
2018-02-03T15:55:17.781Z,9.20
2018-02-03T15:57:45.277Z,10.30
2018-02-03T16:00:12.797Z,10.70
2018-02-03T16:02:40.357Z,12.00
2018-02-03T16:05:07.916Z,10.57
2018-02-03T16:07:35.408Z,11.80
2018-02-03T16:10:02.933Z,8.60
2018-02-03T16:12:30.696Z,9.17
2018-02-03T16:14:58.257Z,9.20
2018-02-03T16:17:25.816Z,8.60
2018-02-03T16:19:53.376Z,8.53
2018-02-03T16:22:20.869Z,9.33
2018-02-03T16:24:48.596Z,8.90
2018-02-03T16:27:16.155Z,8.87
2018-02-03T16:29:43.715Z,8.70
2018-02-03T16:32:11.274Z,9.03
2018-02-03T16:34:38.835Z,10.23
2018-02-03T16:37:06.394Z,9.47
2018-02-03T16:39:33.954Z,9.27
2018-02-03T16:42:01.514Z,9.47
2018-02-03T16:44:29.072Z,8.50
2018-02-03T16:46:56.634Z,8.50
2018-02-03T16:49:24.081Z,8.93
2018-02-03T16:51:51.648Z,8.97
2018-02-03T16:54:19.157Z,9.00
2018-02-03T16:56:46.665Z,8.33
2018-02-03T16:59:14.223Z,8.10
2018-02-03T17:01:41.783Z,8.40
2018-02-03T17:04:09.276Z,7.70
2018-02-03T17:06:36.733Z,8.03
2018-02-03T17:09:04.257Z,8.07
2018-02-03T17:11:31.660Z,7.97
2018-02-03T17:13:59.171Z,8.23
2018-02-03T17:16:26.731Z,7.93
2018-02-03T17:18:54.290Z,8.60
2018-02-03T17:21:21.849Z,8.13
2018-02-03T17:23:49.409Z,8.37
2018-02-03T17:26:16.969Z,9.20
2018-02-03T17:28:44.528Z,9.20
2018-02-03T17:31:12.088Z,8.50
2018-02-03T17:33:39.647Z,9.50
2018-02-03T17:36:07.206Z,9.47
2018-02-03T17:38:40.539Z,8.27
2018-02-03T17:41:08.060Z,8.13
2018-02-03T17:43:35.619Z,8.87
2018-02-03T17:46:08.811Z,9.07
2018-02-03T17:48:36.369Z,8.47
2018-02-03T17:51:03.930Z,8.53
2018-02-03T17:53:31.488Z,9.33
2018-02-03T17:56:04.785Z,10.67
2018-02-03T17:58:32.342Z,9.63
2018-02-03T18:00:59.902Z,9.70
2018-02-03T18:03:27.494Z,10.27
2018-02-03T18:05:55.122Z,9.70
2018-02-03T18:08:22.580Z,10.20
2018-02-03T18:10:50.139Z,9.43
2018-02-03T18:13:17.836Z,8.47
2018-02-03T18:15:45.360Z,8.73
2018-02-03T18:18:12.863Z,8.60
2018-02-03T18:20:40.301Z,8.90
2018-02-03T18:23:07.780Z,8.40
2018-02-03T18:25:35.393Z,8.40
2018-02-03T18:28:02.953Z,9.60
2018-02-03T18:30:30.512Z,9.10
2018-02-03T18:32:58.277Z,9.83
2018-02-03T18:35:25.772Z,8.40
2018-02-03T18:37:53.293Z,9.10
2018-02-03T18:40:20.792Z,9.13
2018-02-03T18:42:48.309Z,8.10
2018-02-03T18:45:30.622Z,8.80
2018-02-03T18:47:58.109Z,9.30
2018-02-03T18:50:25.530Z,9.87
2018-02-03T18:52:53.088Z,10.50
2018-02-03T18:55:20.647Z,8.97
2018-02-03T18:57:48.051Z,9.53
2018-02-03T19:00:15.596Z,8.10
2018-02-03T19:02:43.172Z,8.30
2018-02-03T19:05:10.680Z,8.23
2018-02-03T19:07:38.342Z,8.77
2018-02-03T19:10:05.809Z,8.57
2018-02-03T19:12:33.358Z,7.93
2018-02-03T19:15:00.970Z,8.90
2018-02-03T19:17:28.477Z,8.70
2018-02-03T19:19:55.973Z,11.07
2018-02-03T19:22:23.495Z,9.47
2018-02-03T19:24:50.940Z,8.40
2018-02-03T19:27:18.407Z,7.90
2018-02-03T19:29:45.900Z,7.87
2018-02-03T19:32:13.326Z,6.80
2018-02-03T19:34:40.882Z,8.37
2018-02-03T19:37:08.452Z,7.47
2018-02-03T19:39:36.002Z,7.33
2018-02-03T19:42:03.662Z,7.63
2018-02-03T19:44:31.427Z,8.03
2018-02-03T19:46:58.916Z,6.80
2018-02-03T19:49:26.447Z,7.80
2018-02-03T19:51:53.949Z,7.30
2018-02-03T19:54:21.392Z,8.07
2018-02-03T19:56:48.814Z,7.40
2018-02-03T19:59:16.373Z,8.20
2018-02-03T20:01:43.932Z,7.63
2018-02-03T20:04:11.492Z,7.80
2018-02-03T20:06:38.984Z,7.73
2018-02-03T20:09:06.508Z,8.03
2018-02-03T20:11:34.277Z,8.27
2018-02-03T20:14:02.447Z,8.47
2018-02-03T20:16:30.007Z,8.00
2018-02-03T20:18:57.565Z,6.57
2018-02-03T20:21:25.126Z,7.10
2018-02-03T20:23:52.684Z,7.10
2018-02-03T20:26:20.247Z,7.00
2018-02-03T20:28:47.804Z,7.47
2018-02-03T20:31:15.411Z,7.47
2018-02-03T20:33:43.228Z,7.30
2018-02-03T20:36:10.789Z,7.37
2018-02-03T20:38:38.348Z,6.90
2018-02-03T20:41:05.907Z,7.00
2018-02-03T20:43:33.467Z,7.77
2018-02-03T20:46:01.028Z,7.40
2018-02-03T20:48:28.586Z,7.10
2018-02-03T20:50:56.020Z,6.90
2018-02-03T20:53:23.603Z,6.80
2018-02-03T20:55:51.162Z,6.63
2018-02-03T20:58:18.863Z,6.40
2018-02-03T21:00:46.383Z,7.93
2018-02-03T21:03:13.942Z,8.93
2018-02-03T21:05:41.501Z,10.30
2018-02-03T21:08:09.062Z,9.87
2018-02-03T21:10:36.461Z,9.60
2018-02-03T21:13:04.897Z,7.37
2018-02-03T21:15:32.456Z,8.60
2018-02-03T21:17:59.949Z,8.80
2018-02-03T21:20:27.472Z,9.37
2018-02-03T21:22:55.032Z,8.10
2018-02-03T21:25:22.591Z,9.10
2018-02-03T21:27:50.151Z,8.20
2018-02-03T21:30:17.710Z,8.07
2018-02-03T21:32:45.169Z,8.60
2018-02-03T21:35:12.727Z,8.60
2018-02-03T21:37:40.199Z,7.60
2018-02-03T21:40:07.744Z,8.60
2018-02-03T21:42:35.147Z,8.07
2018-02-03T21:45:02.557Z,8.23
2018-02-03T21:47:30.115Z,7.63
2018-02-03T21:49:57.576Z,7.70
2018-02-03T21:52:25.067Z,8.23
2018-02-03T21:54:52.588Z,7.70
2018-02-03T21:57:20.148Z,7.47
2018-02-03T21:59:47.654Z,7.17
2018-02-03T22:02:15.164Z,7.43
2018-02-03T22:04:42.675Z,8.17
2018-02-03T22:07:10.180Z,9.17
2018-02-03T22:09:37.671Z,7.77
2018-02-03T22:12:05.196Z,7.73
2018-02-03T22:14:32.756Z,8.53
2018-02-03T22:17:00.247Z,7.73
2018-02-03T22:19:27.773Z,8.33
2018-02-03T22:21:55.267Z,7.13
2018-02-03T22:24:22.789Z,7.63
2018-02-03T22:26:50.349Z,7.90
2018-02-03T22:29:17.908Z,8.27
2018-02-03T22:31:45.467Z,8.17
2018-02-03T22:34:13.027Z,7.20
2018-02-03T22:36:40.485Z,7.70
2018-02-03T22:39:07.976Z,7.53
2018-02-03T22:41:35.607Z,7.83
2018-02-03T22:44:03.213Z,8.07
2018-02-03T22:46:30.621Z,6.90
2018-02-03T22:48:58.287Z,7.03
2018-02-03T22:51:25.784Z,7.77
2018-02-03T22:53:53.194Z,8.03
2018-02-03T22:56:20.794Z,8.07
2018-02-03T22:58:48.187Z,7.70
2018-02-03T23:01:17.548Z,8.27
2018-02-03T23:03:45.072Z,8.00
2018-02-03T23:06:12.632Z,9.70
2018-02-03T23:08:40.190Z,9.53
2018-02-03T23:11:07.750Z,7.40
2018-02-03T23:13:35.311Z,7.83
2018-02-03T23:16:02.869Z,7.63
2018-02-03T23:18:30.380Z,8.80
2018-02-03T23:20:57.886Z,7.63
2018-02-03T23:23:25.445Z,7.57
2018-02-03T23:25:53.004Z,7.33
2018-02-03T23:28:20.564Z,8.50
2018-02-03T23:30:48.124Z,7.35
2018-02-03T23:33:15.682Z,6.83
2018-02-03T23:35:43.187Z,6.90
2018-02-03T23:38:10.904Z,7.00
2018-02-03T23:40:38.463Z,7.40
2018-02-03T23:43:05.869Z,7.80
2018-02-03T23:45:33.377Z,8.67
2018-02-03T23:48:00.790Z,7.67
2018-02-03T23:50:28.497Z,7.23
2018-02-03T23:52:55.953Z,7.60
2018-02-03T23:55:23.513Z,9.10
2018-02-03T23:57:51.073Z,7.80
